Time;durP1;ratioP1;P1;durP2;ratioP2;P2;SDS_P1;SDS_P2;PMS_P1;PMS_P2;Temp;Humidity;BMP_temperature;BMP_pressure;BME280_temperature;BME280_humidity;BME280_pressure;Samples;Min_cycle;Max_cycle;Signal;HPM_P1;HPM_P2
2022/09/01 05:43:09;;;;;;;1.02;0.90;;;20.90;54.90;;;;;;6096651;23;20160;-86
2022/09/01 05:49:25;;;;;;;1.17;0.90;;;20.90;54.80;;;;;;5816543;24;20636;-87
2022/09/01 05:52:28;;;;;;;0.98;0.80;;;21.00;54.80;;;;;;5768226;24;20160;-86
2022/09/01 05:54:59;;;;;;;1.48;0.80;;;20.90;54.60;;;;;;5758752;24;20194;-89
2022/09/01 06:08:57;;;;;;;2.47;0.90;;;21.10;54.30;;;;;;5818068;24;20643;-88
2022/09/01 06:11:56;;;;;;;2.15;1.08;;;21.20;54.20;;;;;;5717618;24;20169;-88
2022/09/01 06:14:52;;;;;;;1.00;0.88;;;21.20;54.20;;;;;;5713281;25;20672;-88
2022/09/01 06:17:43;;;;;;;1.00;0.68;;;21.20;54.00;;;;;;5753501;24;20653;-89
2022/09/01 06:20:17;;;;;;;1.23;1.00;;;21.30;54.00;;;;;;5786238;24;20238;-89
2022/09/01 06:26:38;;;;;;;1.42;0.90;;;21.30;53.90;;;;;;5869036;24;20164;-87
2022/09/01 06:29:53;;;;;;;2.05;0.70;;;21.30;54.00;;;;;;5874734;24;20185;-88
2022/09/01 06:32:36;;;;;;;;;;;;;;;;;;;;;
2022/09/01 06:35:42;;;;;;;1.55;0.82;;;21.20;54.00;;;;;;5733689;25;20288;-87
2022/09/01 06:38:36;;;;;;;1.20;0.95;;;21.30;53.90;;;;;;5687698;25;20197;-86
2022/09/01 06:41:03;;;;;;;1.17;0.90;;;21.30;53.90;;;;;;5672362;25;20201;-88
2022/09/01 06:43:35;;;;;;;1.08;0.75;;;21.30;53.90;;;;;;5656959;25;20169;-88
2022/09/01 06:46:01;;;;;;;0.75;0.60;;;21.20;53.90;;;;;;5613985;25;20252;-88
2022/09/01 06:48:30;;;;;;;0.95;0.80;;;21.30;53.90;;;;;;5689841;25;20212;-86
2022/09/01 06:51:04;;;;;;;1.00;0.77;;;21.20;53.90;;;;;;5713663;25;20555;-88
2022/09/01 06:53:33;;;;;;;1.45;0.88;;;21.30;53.90;;;;;;5701974;25;20192;-87
2022/09/01 06:56:40;;;;;;;;;;;;;;;;;;;;;
2022/09/01 06:59:37;;;;;;;0.80;0.80;;;21.20;54.00;;;;;;5739592;24;20248;-87
2022/09/01 07:02:43;;;;;;;;;;;;;;;;;;;;;
2022/09/01 07:06:06;;;;;;;0.63;0.63;;;21.30;54.10;;;;;;5715290;25;20240;-86
2022/09/01 07:09:23;;;;;;;;;;;;;;;;;;;;;
2022/09/01 07:12:43;;;;;;;0.80;0.70;;;21.30;54.10;;;;;;5614908;25;20168;-87
2022/09/01 07:16:17;;;;;;;0.80;0.80;;;21.30;54.10;;;;;;5661844;25;20206;-87
2022/09/01 07:22:40;;;;;;;0.93;0.70;;;21.30;54.10;;;;;;5666488;25;20435;-87
2022/09/01 07:25:42;;;;;;;1.35;0.80;;;21.30;54.10;;;;;;5627594;25;20622;-87
2022/09/01 07:31:39;;;;;;;0.85;0.85;;;21.30;54.10;;;;;;5620745;25;20587;-87
2022/09/01 07:34:44;;;;;;;1.10;0.93;;;21.40;54.10;;;;;;5605770;25;20247;-87
2022/09/01 07:40:53;;;;;;;1.10;1.00;;;21.30;54.10;;;;;;5640162;25;20167;-88
2022/09/01 07:43:42;;;;;;;0.90;0.90;;;21.30;54.20;;;;;;5709710;25;20211;-88
2022/09/01 07:46:22;;;;;;;1.77;0.80;;;21.30;54.20;;;;;;5708204;25;20181;-88
2022/09/01 07:48:58;;;;;;;1.73;1.00;;;21.30;54.20;;;;;;5749945;24;20165;-88
2022/09/01 07:51:44;;;;;;;0.80;0.80;;;21.30;54.20;;;;;;5854678;24;20243;-90
2022/09/01 08:08:33;;;;;;;1.05;0.90;;;21.20;54.50;;;;;;5790950;24;20171;-87
2022/09/01 08:13:59;;;;;;;2.53;1.02;;;21.20;54.40;;;;;;5740930;25;20197;-87
2022/09/01 08:16:56;;;;;;;2.10;0.80;;;21.20;54.30;;;;;;5646501;25;20166;-88
2022/09/01 08:19:30;;;;;;;1.00;0.90;;;21.20;54.50;;;;;;5664372;25;20167;-88
2022/09/01 08:22:06;;;;;;;1.70;0.82;;;21.30;54.30;;;;;;5644322;25;20167;-88
2022/09/01 08:24:35;;;;;;;0.90;0.80;;;21.30;54.20;;;;;;5638832;25;20175;-89
2022/09/01 08:27:07;;;;;;;2.25;0.90;;;21.30;54.40;;;;;;5622621;25;20274;-88
2022/09/01 08:29:33;;;;;;;1.45;1.10;;;21.30;54.30;;;;;;5665139;25;20182;-88
2022/09/01 08:33:34;;;;;;;1.58;0.90;;;21.20;54.30;;;;;;5688925;25;20520;-88
2022/09/01 08:36:23;;;;;;;3.92;1.00;;;21.30;54.80;;;;;;5550126;25;20186;-88
2022/09/01 08:42:39;;;;;;;15.20;1.80;;;21.20;54.90;;;;;;5487921;26;20199;-88
2022/09/01 08:45:33;;;;;;;9.45;1.15;;;21.30;55.00;;;;;;5514663;25;20582;-88
2022/09/01 08:48:30;;;;;;;6.60;1.13;;;21.20;55.10;;;;;;5477207;26;20177;-89
2022/09/01 08:51:48;;;;;;;4.68;0.93;;;21.30;55.10;;;;;;5515975;25;20665;-88
2022/09/01 08:55:26;;;;;;;;;;;;;;;;;;;;;
2022/09/01 08:58:18;;;;;;;5.22;0.95;;;21.30;55.30;;;;;;5550536;25;20171;-88
2022/09/01 09:04:25;;;;;;;3.45;0.85;;;21.30;55.50;;;;;;5537621;25;20182;-88
2022/09/01 09:07:37;;;;;;;0.90;0.85;;;21.30;55.70;;;;;;5533178;25;20167;-88
2022/09/01 09:10:51;;;;;;;2.80;0.85;;;21.30;55.70;;;;;;5548539;25;20184;-88
2022/09/01 09:13:57;;;;;;;2.75;0.82;;;21.30;56.10;;;;;;5643116;25;20664;-87
2022/09/01 09:17:07;;;;;;;1.15;0.85;;;21.20;56.10;;;;;;5656062;25;20251;-88
2022/09/01 09:20:17;;;;;;;1.75;0.75;;;21.30;56.40;;;;;;5666165;25;20286;-88
2022/09/01 09:23:41;;;;;;;0.70;0.70;;;21.30;56.30;;;;;;5716725;25;20226;-88
2022/09/01 09:26:47;;;;;;;0.82;0.82;;;21.30;56.30;;;;;;5773976;24;20175;-88
2022/09/01 09:29:43;;;;;;;2.83;0.90;;;21.30;56.40;;;;;;5826248;24;20166;-88
2022/09/01 09:33:05;;;;;;;;;;;;;;;;;;;;;
2022/09/01 09:36:03;;;;;;;;;;;;;;;;;;;;;
2022/09/01 09:39:25;;;;;;;;;;;;;;;;;;;;;
2022/09/01 09:42:32;;;;;;;1.23;0.77;;;21.30;56.30;;;;;;5795810;24;20246;-88
2022/09/01 09:45:21;;;;;;;1.00;0.90;;;21.30;56.30;;;;;;5866881;24;20239;-87
2022/09/01 09:47:51;;;;;;;0.80;0.80;;;21.30;56.10;;;;;;5851659;24;20220;-88
2022/09/01 09:51:16;;;;;;;1.05;0.80;;;21.30;56.20;;;;;;5873289;24;20241;-88
2022/09/01 09:53:59;;;;;;;1.45;0.63;;;21.30;56.20;;;;;;5797841;24;20551;-89
2022/09/01 10:03:07;;;;;;;0.88;0.88;;;21.40;56.20;;;;;;5822526;24;20162;-88
2022/09/01 10:06:50;;;;;;;1.63;0.80;;;21.40;55.80;;;;;;5792666;24;20175;-88
2022/09/01 10:09:34;;;;;;;2.15;0.80;;;21.30;55.90;;;;;;5790334;24;20168;-88
2022/09/01 10:12:30;;;;;;;0.60;0.60;;;21.30;56.60;;;;;;5811807;24;20171;-89
2022/09/01 10:15:25;;;;;;;1.10;0.73;;;21.30;55.80;;;;;;5759414;24;20203;-89
2022/09/01 10:18:18;;;;;;;2.28;0.90;;;21.40;55.80;;;;;;5794654;24;20175;-88
2022/09/01 10:21:11;;;;;;;1.42;0.77;;;21.30;55.60;;;;;;5793193;24;20195;-88
2022/09/01 10:24:06;;;;;;;0.70;0.68;;;21.30;55.60;;;;;;5752638;24;20160;-88
2022/09/01 10:26:46;;;;;;;1.77;1.02;;;21.30;55.60;;;;;;5795489;24;20488;-88
2022/09/01 10:29:19;;;;;;;1.65;0.70;;;21.30;55.60;;;;;;5792233;24;20168;-88
2022/09/01 10:31:52;;;;;;;0.80;0.80;;;21.30;55.60;;;;;;5766717;24;20196;-88
2022/09/01 10:34:18;;;;;;;0.70;0.70;;;21.30;55.60;;;;;;5770308;24;20222;-88
2022/09/01 10:36:58;;;;;;;;;;;;;;;;;;;;;
2022/09/01 10:39:50;;;;;;;2.03;0.70;;;21.30;55.50;;;;;;5871597;24;20262;-88
2022/09/01 10:42:27;;;;;;;2.78;0.82;;;21.40;55.40;;;;;;5988666;23;20202;-88
2022/09/01 10:45:01;;;;;;;3.33;1.02;;;21.40;55.80;;;;;;6055853;23;20630;-88
2022/09/01 10:47:32;;;;;;;2.15;1.10;;;21.40;55.30;;;;;;6030828;23;20604;-88
2022/09/01 10:50:24;;;;;;;0.70;0.70;;;21.40;55.20;;;;;;6032568;23;20243;-88
2022/09/01 10:53:05;;;;;;;1.10;0.90;;;21.30;55.10;;;;;;6042827;23;20170;-88
2022/09/01 10:56:04;;;;;;;0.95;0.70;;;21.30;55.00;;;;;;6038073;23;20581;-88
2022/09/01 10:58:52;;;;;;;2.25;0.95;;;21.40;54.80;;;;;;6014547;23;20165;-88
2022/09/01 11:02:12;;;;;;;0.80;0.80;;;21.40;54.80;;;;;;6062496;23;20209;-89
2022/09/01 11:05:19;;;;;;;0.70;0.63;;;21.30;54.60;;;;;;5979408;24;20567;-89
2022/09/01 11:07:56;;;;;;;1.10;0.90;;;21.40;54.70;;;;;;5997939;23;20246;-88
2022/09/01 11:10:41;;;;;;;0.70;0.70;;;21.40;54.50;;;;;;5981910;23;20152;-88
2022/09/01 11:13:30;;;;;;;1.65;0.70;;;21.40;54.20;;;;;;6010182;23;20193;-88
2022/09/01 11:16:22;;;;;;;0.60;0.60;;;21.40;54.20;;;;;;5929985;24;20164;-88
2022/09/01 11:18:55;;;;;;;1.15;0.90;;;21.40;54.00;;;;;;5930470;24;20164;-88
2022/09/01 11:21:27;;;;;;;0.80;0.80;;;21.40;54.10;;;;;;5930989;24;20171;-88
2022/09/01 11:24:44;;;;;;;1.30;0.75;;;21.40;54.10;;;;;;5953900;24;20163;-88
2022/09/01 11:31:11;;;;;;;;;;;;;;;;;;;;;
2022/09/01 11:34:04;;;;;;;1.13;0.60;;;21.30;53.50;;;;;;5853683;24;20272;-90
2022/09/01 11:43:16;;;;;;;0.77;0.63;;;21.30;52.70;;;;;;5849302;24;20211;-88
2022/09/01 11:46:44;;;;;;;1.58;0.60;;;21.30;52.60;;;;;;5851186;24;20183;-88
2022/09/01 11:50:12;;;;;;;0.68;0.60;;;21.30;52.50;;;;;;5743241;24;20196;-88
2022/09/01 11:56:41;;;;;;;;;;;;;;;;;;;;;
2022/09/01 12:37:37;;;;;;;0.70;0.60;;;21.40;51.40;;;;;;5866292;24;20338;-87
2022/09/01 12:40:35;;;;;;;0.90;0.80;;;21.50;50.90;;;;;;5847541;24;20249;-88
2022/09/01 12:50:25;;;;;;;0.77;0.77;;;21.40;51.50;;;;;;5797103;24;20180;-87
2022/09/01 12:53:33;;;;;;;1.30;0.68;;;21.40;51.60;;;;;;5818306;24;20192;-88
2022/09/01 12:56:51;;;;;;;;;;;;;;;;;;;;;
2022/09/01 12:59:57;;;;;;;4.22;0.80;;;21.30;51.50;;;;;;5719372;24;20239;-88
2022/09/01 13:02:42;;;;;;;3.38;0.85;;;21.40;51.70;;;;;;5722830;25;20185;-88
2022/09/01 13:12:34;;;;;;;;;;;;;;;;;;;;;
2022/09/01 13:26:05;;;;;;;1.60;0.60;;;21.40;51.90;;;;;;5629143;25;20165;-87
2022/09/01 13:29:14;;;;;;;3.67;1.00;;;21.40;51.90;;;;;;5576660;25;20257;-86
2022/09/01 13:32:21;;;;;;;;;;;;;;;;;;;;;
2022/09/01 13:46:17;;;;;;;1.40;0.70;;;21.50;52.70;;;;;;5565723;25;20188;-87
2022/09/01 13:49:35;;;;;;;;;;;;;;;;;;;;;
2022/09/01 13:55:45;;;;;;;1.20;0.50;;;21.50;53.10;;;;;;5542401;25;20646;-88
2022/09/01 13:58:44;;;;;;;2.10;0.70;;;21.40;53.30;;;;;;5572718;25;20179;-87
2022/09/01 14:01:43;;;;;;;;;;;;;;;;;;;;;
2022/09/01 14:04:24;;;;;;;3.00;0.80;;;21.50;53.30;;;;;;5600485;25;20200;-88
2022/09/01 14:07:53;;;;;;;;;;;;;;;;;;;;;
2022/09/01 14:11:08;;;;;;;1.17;0.60;;;21.40;53.50;;;;;;5666141;25;20203;-87
2022/09/01 14:18:58;;;;;;;;;;;;;;;;;;;;;
2022/09/01 14:22:09;;;;;;;2.85;0.90;;;21.50;53.50;;;;;;5714962;24;20284;-88
2022/09/01 14:24:35;;;;;;;1.02;0.68;;;21.50;53.30;;;;;;5759127;24;20171;-87
2022/09/01 14:27:04;;;;;;;2.55;0.80;;;21.40;53.40;;;;;;5794522;24;20226;-87
2022/09/01 14:29:29;;;;;;;2.00;0.80;;;21.40;53.50;;;;;;5864989;24;20273;-88
2022/09/01 14:32:02;;;;;;;1.58;0.70;;;21.40;53.40;;;;;;5825877;24;20163;-88
2022/09/01 14:34:32;;;;;;;2.45;0.70;;;21.40;53.50;;;;;;5790125;24;20217;-88
2022/09/01 14:37:04;;;;;;;1.05;0.82;;;21.40;53.30;;;;;;5644368;25;20208;-88
2022/09/01 14:40:27;;;;;;;3.08;0.65;;;21.40;53.00;;;;;;5663908;25;20164;-88
2022/09/01 14:42:42;;;;;;;0.82;0.60;;;21.40;52.90;;;;;;5634831;25;20176;-88
2022/09/01 14:45:11;;;;;;;0.98;0.70;;;21.40;52.90;;;;;;5647070;25;20171;-88
2022/09/01 14:47:43;;;;;;;1.00;0.85;;;21.40;52.70;;;;;;5642427;25;20204;-88
2022/09/01 14:50:19;;;;;;;1.85;0.60;;;21.40;52.60;;;;;;5640275;25;20182;-88
2022/09/01 14:52:56;;;;;;;2.05;0.75;;;21.40;52.50;;;;;;5716768;25;20170;-88
2022/09/01 14:55:32;;;;;;;1.02;0.80;;;21.40;52.10;;;;;;5711440;25;20229;-88
2022/09/01 14:57:59;;;;;;;1.33;0.73;;;21.50;52.20;;;;;;5761729;24;20163;-88
2022/09/01 15:00:42;;;;;;;0.75;0.70;;;21.50;52.40;;;;;;5812771;24;20171;-88
2022/09/01 15:03:19;;;;;;;1.48;0.70;;;21.50;52.10;;;;;;5786623;24;20161;-88
2022/09/01 15:06:34;;;;;;;1.55;0.70;;;21.40;52.10;;;;;;5842304;24;20167;-88
2022/09/01 15:08:44;;;;;;;1.40;0.60;;;21.40;52.10;;;;;;5849223;24;20207;-88
2022/09/01 15:11:27;;;;;;;1.13;0.70;;;21.40;52.00;;;;;;5921264;24;20226;-88
2022/09/01 15:14:08;;;;;;;;;;;;;;;;;;;;;
2022/09/01 15:16:43;;;;;;;1.92;0.80;;;21.40;51.90;;;;;;5895700;24;20253;-88
2022/09/01 15:19:12;;;;;;;2.75;0.60;;;21.50;51.90;;;;;;5920318;24;20214;-87
2022/09/01 15:21:45;;;;;;;2.28;0.85;;;21.40;51.60;;;;;;5867590;24;20158;-88
2022/09/01 15:24:13;;;;;;;2.47;0.90;;;21.50;51.60;;;;;;5902183;24;20202;-87
2022/09/01 15:26:59;;;;;;;1.05;0.60;;;21.40;51.40;;;;;;5880394;24;20478;-88
2022/09/01 15:29:32;;;;;;;2.20;0.80;;;21.40;51.10;;;;;;5885416;24;20168;-89
2022/09/01 15:32:06;;;;;;;4.35;0.98;;;21.50;51.00;;;;;;5942066;23;20670;-87
2022/09/01 15:34:35;;;;;;;2.25;0.90;;;21.50;50.90;;;;;;6012455;23;20261;-88
2022/09/01 15:37:06;;;;;;;5.82;1.13;;;21.40;50.70;;;;;;6016878;23;20197;-89
2022/09/01 15:39:35;;;;;;;5.35;1.20;;;21.50;50.80;;;;;;5994296;23;20162;-88
2022/09/01 15:42:03;;;;;;;6.50;1.27;;;21.50;50.90;;;;;;6005514;23;20192;-87
2022/09/01 15:44:32;;;;;;;7.00;1.20;;;21.50;50.80;;;;;;5997366;23;20161;-87
2022/09/01 15:47:07;;;;;;;8.70;1.30;;;21.50;50.80;;;;;;6020565;23;20200;-88
2022/09/01 15:49:35;;;;;;;3.28;0.80;;;21.50;51.00;;;;;;5960548;24;20167;-87
2022/09/01 15:52:06;;;;;;;5.20;1.17;;;21.50;50.80;;;;;;5932450;24;20204;-87
2022/09/01 15:54:35;;;;;;;4.85;1.00;;;21.50;50.70;;;;;;5889078;24;20191;-88
2022/09/01 15:57:10;;;;;;;5.97;1.02;;;21.50;50.50;;;;;;5887450;24;20171;-88
2022/09/01 15:59:40;;;;;;;7.50;1.30;;;21.50;50.40;;;;;;5933510;24;20191;-88
2022/09/01 16:02:06;;;;;;;5.03;1.00;;;21.50;50.50;;;;;;5932597;24;20504;-88
2022/09/01 16:04:32;;;;;;;5.68;1.05;;;21.50;50.30;;;;;;5934026;24;20246;-89
2022/09/01 16:07:05;;;;;;;6.03;1.23;;;21.50;50.10;;;;;;5953288;24;20168;-88
2022/09/01 16:09:57;;;;;;;4.03;0.98;;;21.50;50.10;;;;;;5975796;24;20235;-88
2022/09/01 16:12:37;;;;;;;6.28;0.80;;;21.50;49.90;;;;;;5925108;24;20198;-89
2022/09/01 16:15:26;;;;;;;4.03;1.00;;;21.50;49.80;;;;;;5998204;23;20199;-88
2022/09/01 16:18:47;;;;;;;;;;;;;;;;;;;;;
2022/09/01 16:21:30;;;;;;;5.18;0.90;;;21.50;49.20;;;;;;5951596;24;20167;-88
2022/09/01 16:38:05;;;;;;;5.13;0.93;;;21.50;49.50;;;;;;5811021;24;20203;-89
2022/09/01 16:41:19;;;;;;;;;;;;;;;;;;;;;
2022/09/01 16:44:29;;;;;;;4.53;0.90;;;21.50;49.50;;;;;;5637439;25;20669;-85
2022/09/01 16:47:40;;;;;;;3.65;0.70;;;21.50;49.80;;;;;;5638186;25;20172;-87
2022/09/01 16:50:36;;;;;;;5.45;0.95;;;21.40;49.30;;;;;;5639047;25;20172;-88
2022/09/01 16:53:42;;;;;;;9.07;1.10;;;21.50;49.60;;;;;;5659865;25;20194;-86
2022/09/01 16:56:33;;;;;;;3.88;0.88;;;21.50;49.90;;;;;;5659787;25;20261;-85
2022/09/01 17:00:38;;;;;;;5.97;1.00;;;21.50;49.60;;;;;;5713661;25;20162;-87
2022/09/01 17:03:46;;;;;;;4.90;0.90;;;21.50;50.30;;;;;;5721208;24;20245;-85
2022/09/01 17:06:03;;;;;;;4.20;0.90;;;21.50;49.40;;;;;;5759202;24;20195;-84
2022/09/01 17:09:24;;;;;;;4.80;0.85;;;21.50;50.10;;;;;;5763424;24;20175;-86
2022/09/01 17:12:48;;;;;;;;;;;;;;;;;;;;;
2022/09/01 17:16:01;;;;;;;6.53;1.20;;;21.50;49.90;;;;;;5924558;24;20644;-85
2022/09/01 17:18:41;;;;;;;5.40;0.95;;;21.40;51.50;;;;;;5967400;24;20229;-86
2022/09/01 17:21:15;;;;;;;4.35;1.23;;;21.40;49.80;;;;;;5926983;24;20190;-86
2022/09/01 17:24:12;;;;;;;7.63;1.40;;;21.40;51.00;;;;;;6062812;23;20160;-86
2022/09/01 17:26:54;;;;;;;8.40;1.98;;;21.40;51.20;;;;;;6060926;23;20164;-85
2022/09/01 17:29:33;;;;;;;9.10;2.17;;;21.40;51.40;;;;;;6036155;23;20230;-83
2022/09/01 17:32:28;;;;;;;;;;;;;;;;;;;;;
2022/09/01 17:35:22;;;;;;;6.85;1.08;;;21.40;50.90;;;;;;6105391;23;20262;-84
2022/09/01 17:38:29;;;;;;;;;;;;;;;;;;;;;
2022/09/01 17:41:33;;;;;;;3.35;1.08;;;21.40;50.50;;;;;;6079433;23;20157;-83
2022/09/01 17:44:25;;;;;;;3.30;0.93;;;21.40;51.00;;;;;;6031102;23;20168;-86
2022/09/01 17:47:55;;;;;;;;;;;;;;;;;;;;;
2022/09/01 17:51:09;;;;;;;;;;;;;;;;;;;;;
2022/09/01 17:53:59;;;;;;;3.67;0.93;;;21.40;50.30;;;;;;6049727;23;20676;-85
2022/09/01 17:56:41;;;;;;;3.63;0.90;;;21.40;50.30;;;;;;6005793;23;20156;-84
2022/09/01 17:59:40;;;;;;;2.38;0.90;;;21.40;50.40;;;;;;6051901;23;20167;-84
2022/09/01 18:02:27;;;;;;;5.30;1.10;;;21.40;50.40;;;;;;6015244;23;20227;-86
2022/09/01 18:05:11;;;;;;;5.75;1.20;;;21.40;50.80;;;;;;6051277;23;20208;-86
2022/09/01 18:08:00;;;;;;;4.28;0.90;;;21.40;51.00;;;;;;6048308;23;20607;-85
2022/09/01 18:10:32;;;;;;;7.85;1.25;;;21.40;51.00;;;;;;6066815;23;20688;-84
2022/09/01 18:13:24;;;;;;;2.78;0.82;;;21.40;51.20;;;;;;5996572;23;20510;-85
2022/09/01 18:16:05;;;;;;;4.63;1.10;;;21.30;50.60;;;;;;6014693;23;20180;-85
2022/09/01 18:18:57;;;;;;;;;;;;;;;;;;;;;
2022/09/01 18:21:46;;;;;;;3.30;0.90;;;21.30;51.20;;;;;;6046813;23;20157;-84
2022/09/01 18:24:20;;;;;;;5.63;1.20;;;21.40;51.50;;;;;;6022839;23;20200;-85
2022/09/01 18:26:57;;;;;;;4.22;1.50;;;21.30;51.20;;;;;;6024200;23;20608;-83
2022/09/01 18:29:43;;;;;;;4.53;1.10;;;21.30;52.10;;;;;;6022177;23;20157;-85
2022/09/01 18:32:24;;;;;;;2.55;1.00;;;21.30;51.40;;;;;;6089746;23;20533;-87
2022/09/01 18:35:25;;;;;;;5.40;1.23;;;21.30;51.30;;;;;;6071744;23;20181;-88
2022/09/01 18:38:37;;;;;;;4.10;0.98;;;21.30;51.40;;;;;;6009885;23;20198;-87
2022/09/01 18:41:28;;;;;;;7.32;1.45;;;21.30;51.90;;;;;;5909069;24;20205;-86
2022/09/01 18:44:20;;;;;;;7.72;1.73;;;21.30;52.80;;;;;;5904154;24;20164;-86
2022/09/01 18:47:08;;;;;;;8.02;1.58;;;21.30;52.80;;;;;;5881934;24;20191;-87
2022/09/01 18:50:42;;;;;;;;;;;;;;;;;;;;;
2022/09/01 18:53:43;;;;;;;7.70;1.42;;;21.30;52.30;;;;;;5815833;24;20249;-88
2022/09/01 18:57:05;;;;;;;5.15;1.13;;;21.30;53.10;;;;;;5851393;24;20193;-88
2022/09/01 19:00:52;;;;;;;4.28;0.93;;;21.40;53.00;;;;;;5793811;24;20228;-87
2022/09/01 19:30:41;;;;;;;2.42;1.00;;;21.30;52.30;;;;;;5713572;25;20166;-88
2022/09/01 19:33:25;;;;;;;3.72;1.60;;;21.30;52.80;;;;;;5689730;25;20171;-87
2022/09/01 19:36:02;;;;;;;5.57;1.20;;;21.30;53.50;;;;;;5664586;25;20185;-86
2022/09/01 19:39:04;;;;;;;3.30;1.10;;;21.20;53.20;;;;;;5708658;25;20606;-87
2022/09/01 19:42:03;;;;;;;;;;;;;;;;;;;;;
2022/09/01 19:44:58;;;;;;;5.10;1.23;;;21.20;52.50;;;;;;5696695;25;20245;-87
2022/09/01 19:48:04;;;;;;;2.78;0.80;;;21.30;53.00;;;;;;5676791;25;20166;-89
2022/09/01 19:50:55;;;;;;;4.60;1.05;;;21.20;53.00;;;;;;5708816;24;20222;-87
2022/09/01 19:53:41;;;;;;;4.50;0.90;;;21.20;53.20;;;;;;5743379;24;20173;-88
2022/09/01 19:56:19;;;;;;;4.68;1.35;;;21.20;52.90;;;;;;5743609;24;20153;-88
2022/09/01 19:59:01;;;;;;;2.72;0.88;;;21.20;54.00;;;;;;5743894;24;20171;-87
2022/09/01 20:01:59;;;;;;;2.83;0.70;;;21.20;53.20;;;;;;5745950;24;20168;-87
2022/09/01 20:04:43;;;;;;;1.63;0.98;;;21.20;53.10;;;;;;5794526;24;20166;-87
2022/09/01 20:07:18;;;;;;;4.00;0.80;;;21.20;52.90;;;;;;5921539;23;20165;-87
2022/09/01 20:09:51;;;;;;;2.50;1.00;;;21.20;52.70;;;;;;6031883;23;20159;-87
2022/09/01 20:12:29;;;;;;;4.70;1.27;;;21.20;53.00;;;;;;6030821;23;20246;-87
2022/09/01 20:15:19;;;;;;;2.60;0.90;;;21.20;53.80;;;;;;6055721;23;20644;-87
2022/09/01 20:17:54;;;;;;;3.15;0.90;;;21.20;52.80;;;;;;6056537;23;20472;-87
2022/09/01 20:20:26;;;;;;;1.77;0.93;;;21.20;52.70;;;;;;6031942;23;20167;-87
2022/09/01 20:23:27;;;;;;;4.18;0.93;;;21.10;53.00;;;;;;6054592;23;20187;-88
2022/09/01 20:26:03;;;;;;;2.97;0.80;;;21.20;53.00;;;;;;6078039;23;20166;-87
2022/09/01 20:28:47;;;;;;;0.95;0.70;;;21.20;52.70;;;;;;6053959;23;20614;-87
2022/09/01 20:31:36;;;;;;;1.73;0.80;;;21.20;52.50;;;;;;6033708;23;20155;-87
2022/09/01 20:34:28;;;;;;;3.08;0.90;;;21.20;52.70;;;;;;6030547;23;20179;-87
2022/09/01 20:37:16;;;;;;;1.17;0.80;;;21.20;52.80;;;;;;6131450;23;20476;-87
2022/09/01 20:40:02;;;;;;;2.30;0.70;;;21.10;52.30;;;;;;6108423;23;20175;-87
2022/09/01 20:43:02;;;;;;;1.48;0.90;;;21.10;52.70;;;;;;6113055;23;20139;-87
2022/09/01 20:45:28;;;;;;;1.90;0.90;;;21.10;52.90;;;;;;6111198;23;20499;-87
2022/09/01 20:47:56;;;;;;;2.42;1.15;;;21.20;53.40;;;;;;6107296;23;20588;-87
2022/09/01 20:50:30;;;;;;;4.82;0.93;;;21.10;53.90;;;;;;6083140;23;20247;-88
2022/09/01 20:53:21;;;;;;;1.85;1.02;;;21.00;54.00;;;;;;6131996;23;20131;-87
2022/09/01 20:55:58;;;;;;;5.93;1.25;;;21.10;54.10;;;;;;6090571;23;20229;-87
2022/09/01 20:58:43;;;;;;;3.15;0.80;;;21.10;54.10;;;;;;6043376;23;20161;-87
2022/09/01 21:01:45;;;;;;;3.78;1.02;;;21.10;54.10;;;;;;6089122;23;20225;-87
2022/09/01 21:04:40;;;;;;;2.38;1.10;;;21.10;53.70;;;;;;6063415;23;20589;-87
2022/09/01 21:07:17;;;;;;;3.33;1.17;;;21.10;54.30;;;;;;5996284;23;20170;-87
2022/09/01 21:10:03;;;;;;;3.97;1.10;;;21.00;54.10;;;;;;6043524;23;20169;-87
2022/09/01 21:12:54;;;;;;;4.15;1.20;;;21.10;54.00;;;;;;6022729;23;20165;-87
2022/09/01 21:15:38;;;;;;;2.63;1.05;;;21.10;53.90;;;;;;6019369;23;20728;-87
2022/09/01 21:18:23;;;;;;;1.88;1.00;;;21.10;54.50;;;;;;6066937;23;20493;-87
2022/09/01 21:21:29;;;;;;;1.95;1.10;;;21.10;53.90;;;;;;6043258;23;20161;-87
2022/09/01 21:23:59;;;;;;;1.67;1.00;;;21.10;54.10;;;;;;6063236;23;20161;-87
2022/09/01 21:26:26;;;;;;;4.75;1.00;;;21.10;53.90;;;;;;6043398;23;20170;-87
2022/09/01 21:28:54;;;;;;;4.75;1.15;;;21.10;53.80;;;;;;6019533;23;20161;-87
2022/09/01 21:31:20;;;;;;;2.47;0.82;;;21.10;54.10;;;;;;6043419;23;20168;-87
2022/09/01 21:33:46;;;;;;;2.35;1.02;;;21.10;53.90;;;;;;6043324;23;20238;-88
2022/09/01 21:36:12;;;;;;;1.75;1.10;;;21.10;54.00;;;;;;6067098;23;20138;-87
2022/09/01 21:38:42;;;;;;;3.38;1.10;;;21.10;54.00;;;;;;6038996;23;20203;-87
2022/09/01 21:41:09;;;;;;;1.77;1.00;;;21.10;54.70;;;;;;6076877;23;20619;-87
2022/09/01 21:43:40;;;;;;;2.90;1.17;;;21.10;53.90;;;;;;6029363;23;20163;-87
2022/09/01 21:46:06;;;;;;;1.70;1.00;;;21.10;53.90;;;;;;6101446;23;20592;-87
2022/09/01 21:48:32;;;;;;;2.97;0.93;;;21.10;53.80;;;;;;6101963;23;20492;-87
2022/09/01 21:50:58;;;;;;;1.85;0.95;;;21.10;53.60;;;;;;6126267;23;20139;-87
2022/09/01 21:53:23;;;;;;;2.47;1.15;;;21.10;53.50;;;;;;6053662;23;20203;-87
2022/09/01 21:55:50;;;;;;;3.70;1.20;;;21.10;53.60;;;;;;6078236;23;20180;-87
2022/09/01 21:58:16;;;;;;;2.83;1.00;;;21.10;53.60;;;;;;6101694;23;20159;-87
2022/09/01 22:00:43;;;;;;;0.95;0.80;;;21.10;53.50;;;;;;6077749;23;20156;-87
2022/09/01 22:03:12;;;;;;;1.73;0.90;;;21.10;53.50;;;;;;6078019;23;20136;-87
2022/09/01 22:05:45;;;;;;;1.48;0.85;;;21.10;53.60;;;;;;6048760;23;20196;-87
2022/09/01 22:08:16;;;;;;;2.65;1.30;;;21.10;53.70;;;;;;6026019;23;20220;-87
2022/09/01 22:10:44;;;;;;;2.10;1.10;;;21.10;53.70;;;;;;6024670;23;20163;-87
2022/09/01 22:13:12;;;;;;;1.15;0.98;;;21.10;53.70;;;;;;6071446;23;20680;-87
2022/09/01 22:15:49;;;;;;;1.58;1.00;;;21.10;53.60;;;;;;6042987;23;20189;-88
2022/09/01 22:18:16;;;;;;;1.52;1.00;;;21.10;53.50;;;;;;5973761;23;20194;-87
2022/09/01 22:20:48;;;;;;;1.85;1.00;;;21.10;53.40;;;;;;6042823;23;20649;-87
2022/09/01 22:23:19;;;;;;;2.05;1.00;;;21.20;53.30;;;;;;6042750;23;20236;-87
2022/09/01 22:25:47;;;;;;;1.30;0.90;;;21.10;53.20;;;;;;5980197;24;20165;-87
2022/09/01 22:28:15;;;;;;;1.73;1.00;;;21.10;53.20;;;;;;5935047;24;20570;-88
2022/09/01 22:30:49;;;;;;;1.80;1.00;;;21.10;53.90;;;;;;5935127;24;20163;-87
2022/09/01 22:33:18;;;;;;;2.08;0.82;;;21.10;53.40;;;;;;5935082;24;20227;-87
2022/09/01 22:35:53;;;;;;;1.02;0.88;;;21.10;53.50;;;;;;5930576;24;20192;-87
2022/09/01 22:38:22;;;;;;;1.52;1.10;;;21.10;53.60;;;;;;5952982;24;20206;-87
2022/09/01 22:40:53;;;;;;;2.70;1.10;;;21.10;53.70;;;;;;5951636;24;20165;-87
2022/09/01 22:43:24;;;;;;;1.90;1.00;;;21.10;53.80;;;;;;5975136;24;20208;-87
2022/09/01 22:45:52;;;;;;;1.50;1.02;;;21.10;53.80;;;;;;5969809;23;20245;-87
2022/09/01 22:48:23;;;;;;;2.53;0.95;;;21.10;54.00;;;;;;5967514;23;20606;-87
2022/09/01 22:50:58;;;;;;;1.10;1.00;;;21.10;54.00;;;;;;5981220;24;20512;-87
2022/09/01 22:53:25;;;;;;;2.55;1.00;;;21.10;54.10;;;;;;5959445;24;20227;-88
2022/09/01 22:55:52;;;;;;;1.60;1.17;;;21.10;54.10;;;;;;5943137;23;20234;-87
2022/09/01 22:58:18;;;;;;;2.25;0.93;;;21.10;54.20;;;;;;6037646;23;20150;-87
2022/09/01 23:00:49;;;;;;;2.92;1.08;;;21.10;54.40;;;;;;6014051;23;20245;-87
2022/09/01 23:03:20;;;;;;;1.63;1.00;;;21.10;54.40;;;;;;6036984;23;20652;-87
2022/09/01 23:05:48;;;;;;;2.70;1.35;;;21.10;54.40;;;;;;6013920;23;20201;-87
2022/09/01 23:08:21;;;;;;;1.30;1.08;;;21.00;54.60;;;;;;6013903;23;20162;-87
2022/09/01 23:10:48;;;;;;;2.45;1.20;;;21.10;54.80;;;;;;6013739;23;20162;-88
2022/09/01 23:13:14;;;;;;;1.73;1.00;;;21.10;54.70;;;;;;6037535;23;20139;-87
2022/09/01 23:15:45;;;;;;;3.13;0.98;;;21.00;54.70;;;;;;6061664;23;20640;-87
2022/09/01 23:18:14;;;;;;;2.65;1.10;;;21.10;54.80;;;;;;5953083;24;20238;-87
2022/09/01 23:20:39;;;;;;;2.50;0.98;;;21.00;54.90;;;;;;5954627;23;20240;-87
2022/09/01 23:23:05;;;;;;;2.15;1.10;;;21.10;54.90;;;;;;6013964;23;20606;-87
2022/09/01 23:25:36;;;;;;;1.90;0.95;;;21.00;54.90;;;;;;5990402;23;20162;-87
2022/09/01 23:28:02;;;;;;;2.83;1.00;;;21.00;54.90;;;;;;5980749;24;20167;-87
2022/09/01 23:30:29;;;;;;;1.70;1.20;;;21.00;55.00;;;;;;5957736;24;20250;-87
2022/09/01 23:32:56;;;;;;;2.42;1.20;;;21.00;55.00;;;;;;5980832;24;20171;-87
2022/09/01 23:35:25;;;;;;;4.40;1.00;;;21.00;55.00;;;;;;5980549;24;20223;-88
2022/09/01 23:37:51;;;;;;;2.08;1.15;;;21.00;55.10;;;;;;5990041;23;20198;-87
2022/09/01 23:40:17;;;;;;;2.88;1.05;;;21.00;55.00;;;;;;6037352;23;20222;-87
2022/09/01 23:42:42;;;;;;;1.48;1.20;;;21.00;55.10;;;;;;6038047;23;20162;-87
2022/09/01 23:45:11;;;;;;;1.52;1.00;;;21.00;55.10;;;;;;6037155;23;20161;-87
2022/09/01 23:47:37;;;;;;;2.30;1.40;;;21.00;55.20;;;;;;6008971;23;20166;-87
2022/09/01 23:50:06;;;;;;;1.10;1.00;;;21.00;55.10;;;;;;6008926;23;20158;-87
2022/09/01 23:52:35;;;;;;;1.88;1.10;;;21.00;55.20;;;;;;6008594;23;20158;-87
2022/09/01 23:55:05;;;;;;;2.53;1.20;;;21.00;55.10;;;;;;5952316;24;20632;-88
2022/09/01 23:57:36;;;;;;;2.78;1.25;;;21.00;55.20;;;;;;5929692;24;20170;-88
